Adah, Pennsylvania
Current Conditions -  °F | °C
As of 9:53 PM on Sunday 23 Nov 2014 (Local Time) from KMGW Reporting Station
Light Rain Light Rain  
Wind Chill: 56°   Ceiling: 9500
Heat Index: 56°   Visibility: 10mi
Dew Point: 49°   Wind: 5mph
Humidity: 77%   Direction: NA
Pressure: 29.63"   Gusts: NA
Location:  39.9°N, 79.92°W
Report Text: KMGW 240253Z VRB04KT 10SM -RA OVC095 13/09 A2963 RMK AO2 RAB0157 PRESFR SLP030 P0006 60006 T01330094 58049
Loading
Personal Weather Stations






























Interactive Weather Map New forecast layout! Learn more

10-Day Weather Forecast

Advertisements
Track Severe Weather on mobile